Time;durP1;ratioP1;P1;durP2;ratioP2;P2;SDS_P1;SDS_P2;PMS_P1;PMS_P2;Temp;Humidity;BMP_temperature;BMP_pressure;BME280_temperature;BME280_humidity;BME280_pressure;Samples;Min_cycle;Max_cycle;Signal;HPM_P1;HPM_P2
2022/03/20 00:00:22;;;;;;;10.97;4.43;;;10.70;66.50;;;;;;6274607;22;20236;-89
2022/03/20 00:02:49;;;;;;;8.87;2.50;;;10.60;66.60;;;;;;6275350;22;20223;-88
2022/03/20 00:05:15;;;;;;;3.23;2.20;;;10.80;66.20;;;;;;6275076;22;20181;-84
2022/03/20 00:07:41;;;;;;;6.30;2.93;;;10.70;66.70;;;;;;6272034;22;20166;-84
2022/03/20 00:10:08;;;;;;;6.40;2.60;;;10.60;67.10;;;;;;6270596;22;20484;-85
2022/03/20 00:12:35;;;;;;;6.63;2.60;;;10.50;68.30;;;;;;6273647;22;20149;-85
2022/03/20 00:15:01;;;;;;;6.17;3.03;;;10.60;67.50;;;;;;6276663;22;20151;-85
2022/03/20 00:17:27;;;;;;;8.03;3.73;;;10.70;67.60;;;;;;6275233;22;20229;-85
2022/03/20 00:19:53;;;;;;;10.70;3.30;;;10.70;68.10;;;;;;6274096;22;20229;-84
2022/03/20 00:22:18;;;;;;;7.33;2.80;;;10.60;68.40;;;;;;6277961;22;20157;-85
2022/03/20 00:24:45;;;;;;;9.53;3.80;;;10.40;68.20;;;;;;6276560;22;20146;-84
2022/03/20 00:27:14;;;;;;;7.87;2.90;;;10.40;68.40;;;;;;6276009;22;20193;-85
2022/03/20 00:29:40;;;;;;;5.97;3.23;;;10.30;68.60;;;;;;6276972;22;20571;-85
2022/03/20 00:32:11;;;;;;;7.47;3.27;;;10.20;69.10;;;;;;6276801;22;20143;-85
2022/03/20 00:34:38;;;;;;;7.20;3.37;;;10.30;69.60;;;;;;6276796;22;20158;-85
2022/03/20 00:37:06;;;;;;;6.60;3.27;;;10.30;69.20;;;;;;6276457;22;20226;-85
2022/03/20 00:39:32;;;;;;;7.83;4.10;;;10.10;69.50;;;;;;6276335;22;20179;-85
2022/03/20 00:41:57;;;;;;;8.43;3.80;;;10.20;69.50;;;;;;6275652;22;20161;-85
2022/03/20 00:44:23;;;;;;;6.00;3.47;;;10.20;69.20;;;;;;6276651;22;20146;-85
2022/03/20 00:46:49;;;;;;;7.23;3.73;;;10.20;69.40;;;;;;6276472;22;20143;-85
2022/03/20 00:49:15;;;;;;;7.27;3.90;;;10.30;69.50;;;;;;6276739;22;20151;-85
2022/03/20 00:51:42;;;;;;;8.03;4.23;;;10.20;69.50;;;;;;6276340;22;20154;-85
2022/03/20 00:54:08;;;;;;;9.97;4.70;;;10.20;69.70;;;;;;6276576;22;20154;-85
2022/03/20 00:56:34;;;;;;;12.20;5.03;;;10.10;70.40;;;;;;6276391;22;20151;-85
2022/03/20 00:59:00;;;;;;;9.57;4.93;;;10.20;69.90;;;;;;6276402;22;20615;-85
2022/03/20 01:01:28;;;;;;;8.07;4.10;;;10.20;70.40;;;;;;6276381;22;20150;-85
2022/03/20 01:03:54;;;;;;;9.73;5.40;;;10.00;69.90;;;;;;6276696;22;20227;-85
2022/03/20 01:06:21;;;;;;;9.90;5.80;;;10.00;70.60;;;;;;6276632;22;20205;-85
2022/03/20 01:08:46;;;;;;;9.40;5.23;;;10.00;71.00;;;;;;6276923;22;20572;-86
2022/03/20 01:11:12;;;;;;;10.43;5.67;;;10.10;70.20;;;;;;6276132;22;20197;-85
2022/03/20 01:13:38;;;;;;;11.63;5.30;;;9.90;70.50;;;;;;6276422;22;20182;-85
2022/03/20 01:16:06;;;;;;;8.90;5.13;;;10.00;70.30;;;;;;6275730;22;20605;-85
2022/03/20 01:18:31;;;;;;;9.90;5.37;;;9.90;70.80;;;;;;6276326;22;20154;-85
2022/03/20 01:20:58;;;;;;;8.00;5.27;;;9.70;71.30;;;;;;6276468;22;20158;-85
2022/03/20 01:23:23;;;;;;;13.70;6.20;;;9.60;71.60;;;;;;6276646;22;20146;-85
2022/03/20 01:25:49;;;;;;;10.03;5.43;;;9.60;71.40;;;;;;6275806;22;20165;-85
2022/03/20 01:28:16;;;;;;;10.93;5.70;;;9.40;72.40;;;;;;6276421;22;20150;-85
2022/03/20 01:30:42;;;;;;;9.17;5.70;;;9.50;71.80;;;;;;6276502;22;20154;-85
2022/03/20 01:33:08;;;;;;;11.47;5.67;;;9.70;71.80;;;;;;6275637;22;20167;-86
2022/03/20 01:35:35;;;;;;;8.83;5.60;;;9.30;72.50;;;;;;6275566;22;20349;-85
2022/03/20 01:38:02;;;;;;;9.40;5.10;;;9.30;73.00;;;;;;6280505;22;20216;-86
2022/03/20 01:40:27;;;;;;;12.67;5.73;;;9.20;73.20;;;;;;6285668;22;20186;-85
2022/03/20 01:42:53;;;;;;;13.17;6.00;;;9.20;73.40;;;;;;6277318;22;20456;-85
2022/03/20 01:45:21;;;;;;;7.63;5.37;;;9.20;73.50;;;;;;6276549;22;20571;-86
2022/03/20 01:47:49;;;;;;;9.33;5.10;;;9.10;73.70;;;;;;6276005;22;20156;-85
2022/03/20 01:50:19;;;;;;;9.40;5.03;;;9.00;73.80;;;;;;6276370;22;20265;-85
2022/03/20 01:52:46;;;;;;;8.97;5.80;;;9.10;73.90;;;;;;6276074;22;20150;-85
2022/03/20 01:55:12;;;;;;;9.37;4.63;;;9.10;73.60;;;;;;6275901;22;20151;-85
2022/03/20 01:57:42;;;;;;;12.30;5.90;;;9.10;73.60;;;;;;6275954;22;20237;-85
2022/03/20 02:00:10;;;;;;;11.60;5.53;;;8.90;73.50;;;;;;6276024;22;20615;-85
2022/03/20 02:02:36;;;;;;;8.47;5.43;;;8.90;73.80;;;;;;6275847;22;20339;-85
2022/03/20 02:05:04;;;;;;;8.73;5.00;;;8.90;74.10;;;;;;6276137;22;20146;-85
2022/03/20 02:07:34;;;;;;;10.30;5.90;;;8.90;74.10;;;;;;6275856;22;20594;-85
2022/03/20 02:10:00;;;;;;;9.87;5.50;;;9.10;73.40;;;;;;6275962;22;20154;-85
2022/03/20 02:12:26;;;;;;;11.27;5.60;;;9.00;73.30;;;;;;6275871;22;20207;-85
2022/03/20 02:14:53;;;;;;;8.57;5.77;;;9.00;73.60;;;;;;6275931;22;20142;-85
2022/03/20 02:17:19;;;;;;;10.33;5.40;;;9.00;73.60;;;;;;6275914;22;20473;-85
2022/03/20 02:19:46;;;;;;;9.17;5.70;;;8.90;73.60;;;;;;6275707;22;20178;-85
2022/03/20 02:22:12;;;;;;;9.83;5.50;;;8.90;74.00;;;;;;6275647;22;20150;-85
2022/03/20 02:24:46;;;;;;;11.63;5.67;;;8.90;74.00;;;;;;6275731;22;20143;-85
2022/03/20 02:27:15;;;;;;;11.03;5.37;;;8.90;74.20;;;;;;6276079;22;20147;-86
2022/03/20 02:29:42;;;;;;;10.13;5.40;;;8.80;73.90;;;;;;6275588;22;20165;-85
2022/03/20 02:32:12;;;;;;;9.80;5.93;;;8.80;74.10;;;;;;6275720;22;20578;-86
2022/03/20 02:34:38;;;;;;;12.10;6.00;;;8.90;73.50;;;;;;6275559;22;20180;-85
2022/03/20 02:37:04;;;;;;;8.33;5.63;;;8.70;74.00;;;;;;6275306;22;20474;-85
2022/03/20 02:39:31;;;;;;;10.10;5.57;;;8.40;74.60;;;;;;6275466;22;20201;-85
2022/03/20 02:42:04;;;;;;;10.50;6.43;;;8.50;74.90;;;;;;6275993;22;20173;-85
2022/03/20 02:44:57;;;;;;;11.93;6.07;;;8.50;74.50;;;;;;6275561;22;20229;-85
2022/03/20 02:47:24;;;;;;;11.27;6.57;;;8.60;74.30;;;;;;6275621;22;20180;-86
2022/03/20 02:49:55;;;;;;;9.87;6.13;;;8.50;74.30;;;;;;6275629;22;20594;-86
2022/03/20 02:52:24;;;;;;;9.90;6.80;;;8.60;74.70;;;;;;6275908;22;20146;-86
2022/03/20 02:54:50;;;;;;;11.73;7.17;;;8.50;74.30;;;;;;6275620;22;20147;-86
2022/03/20 02:57:16;;;;;;;13.83;6.57;;;8.50;74.50;;;;;;6275658;22;20587;-86
2022/03/20 02:59:42;;;;;;;15.13;6.80;;;8.30;74.50;;;;;;6275651;22;20195;-86
2022/03/20 03:02:09;;;;;;;13.40;6.20;;;8.30;75.30;;;;;;6275550;22;20192;-85
2022/03/20 03:04:37;;;;;;;13.97;6.67;;;8.30;74.80;;;;;;6275381;22;20154;-85
2022/03/20 03:07:03;;;;;;;13.80;7.50;;;8.20;75.30;;;;;;6275370;22;20171;-86
2022/03/20 03:12:14;;;;;;;13.13;6.30;;;8.10;75.60;;;;;;6276894;22;20227;-85
2022/03/20 03:17:27;;;;;;;10.27;5.70;;;7.80;77.10;;;;;;6277033;22;20482;-85
2022/03/20 03:19:57;;;;;;;11.73;6.27;;;7.90;76.70;;;;;;6275591;22;20593;-85
2022/03/20 03:22:25;;;;;;;13.83;6.77;;;8.00;76.60;;;;;;6275138;22;20137;-85
2022/03/20 03:24:51;;;;;;;12.57;7.00;;;8.00;76.70;;;;;;6275086;22;20147;-85
2022/03/20 03:27:17;;;;;;;10.53;6.10;;;7.80;77.00;;;;;;6275512;22;20585;-85
2022/03/20 03:29:42;;;;;;;13.57;6.90;;;7.90;76.90;;;;;;6275116;22;20415;-85
2022/03/20 03:32:08;;;;;;;10.60;6.23;;;7.80;77.50;;;;;;6275235;22;20145;-85
2022/03/20 03:37:20;;;;;;;10.43;6.20;;;8.00;76.90;;;;;;6276817;22;20282;-85
2022/03/20 03:39:46;;;;;;;12.13;6.20;;;8.00;77.10;;;;;;6275160;22;20237;-85
2022/03/20 03:42:12;;;;;;;12.80;5.80;;;7.90;77.40;;;;;;6275220;22;20143;-85
2022/03/20 03:44:38;;;;;;;10.50;5.80;;;8.00;77.40;;;;;;6274895;22;20150;-85
2022/03/20 03:47:04;;;;;;;9.70;5.87;;;8.00;77.00;;;;;;6274992;22;20168;-85
2022/03/20 03:49:30;;;;;;;9.20;5.80;;;7.70;78.10;;;;;;6274758;22;20154;-85
2022/03/20 03:51:55;;;;;;;11.37;6.03;;;7.80;78.30;;;;;;6275179;22;20178;-85
2022/03/20 03:54:21;;;;;;;10.13;6.00;;;7.80;78.40;;;;;;6275101;22;20278;-85
2022/03/20 03:56:46;;;;;;;15.17;6.63;;;8.00;77.80;;;;;;6275199;22;20156;-85
2022/03/20 03:59:12;;;;;;;11.33;6.03;;;8.20;78.30;;;;;;6274878;22;20177;-85
2022/03/20 04:01:38;;;;;;;11.30;5.70;;;8.00;77.90;;;;;;6275219;22;20204;-85
2022/03/20 04:04:04;;;;;;;10.47;5.73;;;8.20;77.60;;;;;;6274673;22;20141;-85
2022/03/20 04:06:29;;;;;;;12.73;6.43;;;8.20;77.40;;;;;;6274877;22;20252;-85
2022/03/20 04:08:55;;;;;;;12.07;6.43;;;8.00;78.20;;;;;;6274823;22;20223;-84
2022/03/20 04:11:21;;;;;;;12.37;6.87;;;8.20;78.40;;;;;;6249146;22;20602;-85
2022/03/20 04:13:47;;;;;;;10.40;6.07;;;8.10;77.80;;;;;;6274879;22;20157;-84
2022/03/20 04:16:12;;;;;;;11.57;7.10;;;8.20;77.90;;;;;;6275361;22;20154;-85
2022/03/20 04:18:38;;;;;;;9.83;6.87;;;8.20;77.60;;;;;;6274210;22;20664;-85
2022/03/20 04:21:04;;;;;;;12.80;7.00;;;8.20;77.80;;;;;;6274877;22;20146;-85
2022/03/20 04:23:45;;;;;;;12.23;7.70;;;8.10;78.00;;;;;;6275113;22;20144;-85
2022/03/20 04:26:14;;;;;;;14.97;7.80;;;8.00;78.80;;;;;;6279756;22;20145;-85
2022/03/20 04:28:40;;;;;;;14.63;7.40;;;7.80;79.10;;;;;;6283063;22;20143;-85
2022/03/20 04:31:05;;;;;;;17.07;8.40;;;7.80;79.20;;;;;;6276455;22;20274;-85
2022/03/20 04:33:31;;;;;;;12.97;7.37;;;7.70;79.30;;;;;;6275928;22;20188;-85
2022/03/20 04:35:57;;;;;;;16.13;8.07;;;7.60;80.00;;;;;;6274814;22;20542;-85
2022/03/20 04:38:23;;;;;;;13.73;8.27;;;7.50;80.40;;;;;;6274680;22;20163;-85
2022/03/20 04:40:49;;;;;;;15.30;8.53;;;7.40;80.70;;;;;;6274569;22;20624;-85
2022/03/20 04:43:17;;;;;;;14.13;10.10;;;7.40;80.80;;;;;;6274820;22;20147;-85
2022/03/20 04:45:43;;;;;;;17.33;9.83;;;7.50;80.80;;;;;;6274416;22;20146;-85
2022/03/20 04:59:05;;;;;;;14.40;10.17;;;8.00;79.30;;;;;;6276237;22;20205;-85
2022/03/20 05:01:31;;;;;;;18.93;11.13;;;8.20;79.00;;;;;;6276771;22;20145;-86
2022/03/20 05:03:58;;;;;;;16.90;11.40;;;8.40;78.60;;;;;;6276248;22;20199;-86
2022/03/20 05:06:24;;;;;;;19.77;12.37;;;8.50;78.00;;;;;;6276673;22;20154;-86
2022/03/20 05:08:49;;;;;;;21.63;12.17;;;8.40;77.60;;;;;;6276845;22;20154;-86
2022/03/20 05:14:00;;;;;;;22.10;12.10;;;8.40;78.20;;;;;;6277973;22;20192;-85
2022/03/20 05:16:25;;;;;;;19.73;13.03;;;8.40;78.60;;;;;;6275966;22;20156;-86
2022/03/20 05:18:51;;;;;;;21.73;12.93;;;8.40;79.10;;;;;;6276102;22;20173;-85
2022/03/20 05:21:16;;;;;;;23.83;12.87;;;8.30;79.50;;;;;;6276484;22;20607;-85
2022/03/20 05:23:42;;;;;;;20.50;13.30;;;8.40;80.00;;;;;;6276229;22;20142;-86
2022/03/20 05:26:08;;;;;;;22.40;13.90;;;8.50;80.20;;;;;;6276314;22;20154;-85
2022/03/20 05:28:33;;;;;;;22.00;13.77;;;8.60;79.50;;;;;;6276587;22;20569;-85
2022/03/20 05:30:59;;;;;;;23.27;13.23;;;8.50;79.60;;;;;;6276264;22;20146;-85
2022/03/20 12:21:55;;;;;;;27.97;21.80;;;12.60;73.30;;;;;;6308488;22;20208;-93
2022/03/20 12:49:46;;;;;;;29.63;21.80;;;12.20;72.90;;;;;;6309328;22;20613;-94
2022/03/20 12:52:33;;;;;;;30.30;23.03;;;12.00;75.20;;;;;;6307170;22;20145;-93
2022/03/20 12:58:47;;;;;;;;;;;;;;;;;;;;;
2022/03/20 13:07:26;;;;;;;31.33;22.03;;;11.70;77.00;;;;;;6310339;22;20202;-90
2022/03/20 13:09:59;;;;;;;31.00;22.67;;;11.70;76.20;;;;;;6307842;22;20150;-90
2022/03/20 13:12:24;;;;;;;33.27;22.17;;;11.60;76.50;;;;;;6307570;22;20597;-91
2022/03/20 13:14:55;;;;;;;29.63;20.97;;;11.60;76.10;;;;;;6307742;22;20153;-91
2022/03/20 13:17:25;;;;;;;31.70;22.77;;;11.70;76.50;;;;;;6310305;22;20153;-92
2022/03/20 13:19:52;;;;;;;32.63;21.87;;;11.70;75.30;;;;;;6308425;22;20233;-92
2022/03/20 13:22:18;;;;;;;34.70;23.03;;;11.90;75.80;;;;;;6307665;22;20292;-92
2022/03/20 13:24:46;;;;;;;30.47;21.77;;;12.30;74.60;;;;;;6308056;22;20169;-91
2022/03/20 13:27:13;;;;;;;30.73;22.20;;;12.60;74.50;;;;;;6307925;22;20203;-91
2022/03/20 13:29:42;;;;;;;32.23;22.33;;;12.60;74.30;;;;;;6307774;22;20142;-92
2022/03/20 13:32:11;;;;;;;28.13;22.63;;;12.80;73.80;;;;;;6308164;22;20729;-93
2022/03/20 13:34:42;;;;;;;30.70;22.43;;;13.00;73.90;;;;;;6308467;22;20150;-92
2022/03/20 13:37:10;;;;;;;29.93;23.00;;;13.60;72.70;;;;;;6308801;22;20196;-92
2022/03/20 13:39:38;;;;;;;29.77;22.83;;;13.80;71.80;;;;;;6308426;22;20184;-92
2022/03/20 13:42:18;;;;;;;33.73;24.13;;;14.30;70.30;;;;;;6309472;22;20145;-92
2022/03/20 13:44:47;;;;;;;30.63;23.97;;;14.20;69.40;;;;;;6311050;22;20145;-92
2022/03/20 13:47:13;;;;;;;33.13;25.00;;;14.10;69.90;;;;;;6312125;22;20589;-91
2022/03/20 13:49:40;;;;;;;33.23;24.37;;;13.70;70.60;;;;;;6308865;22;20145;-91
2022/03/20 13:52:07;;;;;;;32.30;24.50;;;13.10;71.30;;;;;;6308650;22;20150;-92
2022/03/20 13:54:36;;;;;;;36.37;24.83;;;12.40;73.30;;;;;;6308552;22;20273;-92
2022/03/20 13:57:11;;;;;;;32.43;23.47;;;12.10;74.10;;;;;;6308930;22;20229;-92
2022/03/20 13:59:48;;;;;;;31.70;21.97;;;12.20;73.90;;;;;;6308767;22;20182;-92
2022/03/20 14:02:14;;;;;;;31.07;21.80;;;12.80;73.20;;;;;;6308492;22;20170;-92
2022/03/20 14:04:39;;;;;;;29.53;21.37;;;13.80;71.40;;;;;;6308588;22;20152;-93
2022/03/20 14:07:18;;;;;;;28.33;19.50;;;15.20;68.10;;;;;;6308502;22;20492;-92
2022/03/20 14:09:45;;;;;;;29.90;20.67;;;15.80;65.30;;;;;;6312308;22;20148;-92
2022/03/20 14:12:31;;;;;;;26.77;20.17;;;15.50;65.10;;;;;;6309109;22;20151;-91
2022/03/20 14:15:09;;;;;;;27.00;19.87;;;15.20;66.70;;;;;;6307196;22;20158;-92
2022/03/20 14:17:41;;;;;;;30.17;21.83;;;14.80;67.00;;;;;;6307352;22;20450;-91
2022/03/20 14:20:11;;;;;;;29.07;21.53;;;14.80;67.70;;;;;;6307401;22;20185;-92
2022/03/20 14:22:47;;;;;;;29.67;21.53;;;15.10;66.70;;;;;;6307405;22;20152;-92
2022/03/20 14:25:36;;;;;;;28.10;21.37;;;15.10;67.20;;;;;;6307388;22;20157;-92
2022/03/20 14:28:07;;;;;;;91.63;51.07;;;15.40;66.50;;;;;;6307051;22;20214;-92
2022/03/20 14:41:36;;;;;;;31.67;23.23;;;17.10;63.30;;;;;;6308365;22;20195;-91
2022/03/20 14:44:15;;;;;;;29.93;23.33;;;16.50;64.00;;;;;;6306910;22;20165;-91
2022/03/20 14:46:42;;;;;;;31.17;23.60;;;16.00;65.50;;;;;;6306997;22;20153;-92
2022/03/20 14:49:09;;;;;;;30.10;22.20;;;16.00;65.60;;;;;;6307054;22;20153;-92
2022/03/20 14:51:37;;;;;;;29.80;23.50;;;16.00;66.10;;;;;;6307433;22;20161;-93
2022/03/20 14:54:05;;;;;;;30.17;23.53;;;16.30;65.60;;;;;;6307104;22;20154;-92
2022/03/20 14:56:32;;;;;;;27.23;21.37;;;16.70;65.10;;;;;;6307155;22;20195;-92
2022/03/20 14:59:00;;;;;;;31.83;23.10;;;16.90;64.40;;;;;;6306882;22;20256;-92
2022/03/20 15:01:26;;;;;;;32.43;22.60;;;16.90;64.60;;;;;;6307124;22;20187;-92
2022/03/20 15:03:53;;;;;;;28.17;22.27;;;17.10;64.40;;;;;;6306702;22;20161;-93
2022/03/20 15:06:22;;;;;;;25.27;21.33;;;17.60;64.30;;;;;;6306614;22;20194;-92
2022/03/20 15:11:33;;;;;;;31.37;22.33;;;17.90;62.20;;;;;;6308070;22;20149;-92
2022/03/20 15:14:00;;;;;;;27.10;22.53;;;17.90;62.50;;;;;;6306902;22;20581;-92
2022/03/20 15:16:26;;;;;;;27.67;22.07;;;17.80;62.30;;;;;;6307213;22;20150;-93
2022/03/20 15:18:53;;;;;;;27.40;21.77;;;17.70;62.10;;;;;;6311074;22;20198;-92
2022/03/20 15:21:19;;;;;;;27.53;21.37;;;17.40;61.90;;;;;;6307850;22;20185;-92
2022/03/20 15:23:46;;;;;;;27.23;21.27;;;17.60;61.70;;;;;;6307161;22;20174;-91
2022/03/20 15:26:11;;;;;;;28.17;20.00;;;17.80;61.10;;;;;;6306707;22;20146;-93
2022/03/20 15:28:37;;;;;;;27.03;20.97;;;17.60;61.00;;;;;;6307205;22;20146;-93
2022/03/20 15:31:04;;;;;;;26.07;21.23;;;17.20;61.60;;;;;;6306515;22;20150;-92
2022/03/20 15:33:39;;;;;;;26.67;21.43;;;17.00;61.80;;;;;;6306176;22;20175;-92
2022/03/20 15:36:08;;;;;;;23.63;20.43;;;17.20;61.60;;;;;;6306817;22;20154;-93
2022/03/20 15:38:36;;;;;;;26.03;20.97;;;17.50;61.10;;;;;;6306604;22;20154;-93
2022/03/20 15:41:06;;;;;;;29.90;21.03;;;17.30;60.90;;;;;;6306043;22;20268;-93
2022/03/20 15:43:33;;;;;;;26.10;19.73;;;17.50;60.70;;;;;;6306323;22;20571;-92
2022/03/20 15:46:00;;;;;;;25.07;19.87;;;17.80;60.50;;;;;;6306747;22;20244;-92
2022/03/20 15:48:27;;;;;;;25.17;20.27;;;17.80;60.20;;;;;;6306615;22;20146;-93
2022/03/20 15:50:53;;;;;;;25.53;19.93;;;17.70;60.10;;;;;;6306633;22;20271;-92
2022/03/20 15:53:20;;;;;;;24.83;19.17;;;17.30;60.70;;;;;;6306815;22;20205;-93
2022/03/20 15:55:46;;;;;;;25.33;19.53;;;17.40;61.30;;;;;;6306081;22;20632;-93
2022/03/20 15:58:12;;;;;;;28.90;21.40;;;17.30;60.70;;;;;;6306731;22;20150;-93
2022/03/20 16:00:40;;;;;;;29.40;21.67;;;17.30;60.60;;;;;;6306417;22;20641;-93
2022/03/20 16:03:06;;;;;;;27.57;19.77;;;17.00;61.00;;;;;;6309242;22;20233;-92
2022/03/20 16:05:32;;;;;;;28.27;21.10;;;16.60;61.60;;;;;;6311021;22;20187;-92
2022/03/20 16:07:58;;;;;;;26.77;21.53;;;16.60;62.10;;;;;;6306904;22;20203;-92
2022/03/20 16:10:24;;;;;;;24.67;20.07;;;16.50;62.30;;;;;;6306110;22;20157;-93
2022/03/20 16:12:49;;;;;;;26.93;21.00;;;16.70;62.30;;;;;;6306458;22;20154;-92
2022/03/20 16:15:16;;;;;;;26.33;20.60;;;17.00;61.50;;;;;;6306342;22;20762;-93
2022/03/20 16:17:44;;;;;;;28.07;20.67;;;17.20;61.30;;;;;;6306519;22;20232;-93
2022/03/20 16:20:11;;;;;;;25.90;20.50;;;17.30;61.10;;;;;;6306732;22;20186;-93
2022/03/20 16:31:09;;;;;;;28.10;21.33;;;16.60;62.00;;;;;;6214495;23;20152;-94
2022/03/20 16:33:37;;;;;;;27.33;21.37;;;16.50;62.70;;;;;;6280607;22;20206;-94
2022/03/20 16:36:03;;;;;;;27.40;21.73;;;16.50;62.50;;;;;;6306055;22;20150;-94
2022/03/20 16:38:28;;;;;;;26.63;19.90;;;16.60;62.60;;;;;;6305028;22;20162;-94
2022/03/20 16:40:55;;;;;;;26.97;20.13;;;16.90;62.50;;;;;;6304641;22;20633;-94
2022/03/20 16:43:25;;;;;;;30.17;20.63;;;17.20;61.50;;;;;;6305937;22;20530;-93
2022/03/20 16:45:56;;;;;;;28.83;20.23;;;16.80;61.90;;;;;;6305762;22;20173;-94
2022/03/20 16:48:25;;;;;;;27.23;21.37;;;17.00;62.10;;;;;;6305962;22;20147;-93
2022/03/20 16:50:52;;;;;;;30.20;21.53;;;17.30;61.50;;;;;;6305498;22;20150;-93
2022/03/20 16:53:18;;;;;;;29.60;21.23;;;17.30;61.20;;;;;;6305711;22;20509;-93
2022/03/20 16:55:46;;;;;;;28.90;21.90;;;17.10;61.70;;;;;;6306254;22;20149;-92
2022/03/20 16:58:13;;;;;;;29.70;21.70;;;17.10;61.60;;;;;;6308017;22;20763;-93
2022/03/20 17:00:41;;;;;;;26.60;20.67;;;16.90;62.30;;;;;;6308821;22;20185;-92
2022/03/20 17:03:10;;;;;;;27.67;21.30;;;17.10;61.70;;;;;;6309786;22;20646;-93
2022/03/20 17:05:36;;;;;;;26.73;20.37;;;17.00;61.70;;;;;;6309953;22;20189;-92
2022/03/20 17:08:04;;;;;;;30.63;22.93;;;16.80;62.00;;;;;;6310619;22;20247;-93
2022/03/20 17:10:30;;;;;;;27.30;21.53;;;16.60;62.40;;;;;;6308450;22;20158;-94
2022/03/20 17:12:57;;;;;;;27.27;21.23;;;16.40;62.50;;;;;;6307759;22;20154;-93
2022/03/20 17:15:23;;;;;;;30.87;22.07;;;16.10;64.10;;;;;;6308512;22;20159;-93
2022/03/20 17:17:50;;;;;;;29.17;22.20;;;15.70;64.20;;;;;;6307737;22;20619;-92
2022/03/20 17:20:17;;;;;;;28.13;21.23;;;15.40;64.90;;;;;;6308515;22;20189;-94
2022/03/20 17:22:42;;;;;;;34.27;22.50;;;14.90;65.90;;;;;;6306722;22;20237;-93
2022/03/20 17:25:10;;;;;;;29.67;21.60;;;14.70;66.90;;;;;;6308492;22;20766;-92
2022/03/20 17:27:36;;;;;;;28.77;22.50;;;14.60;68.10;;;;;;6306203;22;20150;-93
2022/03/20 17:30:02;;;;;;;31.70;22.73;;;14.40;68.70;;;;;;6307876;22;20872;-93
2022/03/20 17:32:28;;;;;;;33.70;23.60;;;14.30;68.80;;;;;;6306793;22;20252;-93
2022/03/20 17:34:53;;;;;;;32.10;23.37;;;14.20;68.90;;;;;;6307868;22;20153;-93
2022/03/20 17:37:19;;;;;;;32.63;23.53;;;14.20;68.70;;;;;;6308487;22;20180;-93
2022/03/20 17:39:45;;;;;;;31.97;22.67;;;14.10;68.40;;;;;;6311962;22;20203;-92
2022/03/20 17:42:10;;;;;;;26.77;21.07;;;14.00;69.90;;;;;;6312114;22;20196;-94
2022/03/20 17:44:36;;;;;;;36.40;23.77;;;13.80;71.30;;;;;;6306861;22;20161;-93
2022/03/20 17:47:02;;;;;;;32.77;22.43;;;13.80;71.10;;;;;;6307011;22;20153;-92
2022/03/20 17:49:28;;;;;;;33.33;22.97;;;13.70;71.00;;;;;;6306640;22;20581;-94
2022/03/20 17:51:56;;;;;;;30.60;22.67;;;13.50;71.60;;;;;;6306649;22;20153;-94
2022/03/20 17:54:25;;;;;;;31.00;23.07;;;13.50;71.90;;;;;;6309910;22;20548;-93
2022/03/20 17:56:52;;;;;;;27.97;21.97;;;13.40;72.60;;;;;;6311015;22;20239;-90
2022/03/20 17:59:24;;;;;;;30.60;22.20;;;13.20;73.20;;;;;;6308669;22;20481;-93
2022/03/20 18:01:51;;;;;;;32.07;22.80;;;13.00;73.30;;;;;;6309182;22;20151;-94
2022/03/20 18:09:45;;;;;;;31.33;23.00;;;12.70;74.70;;;;;;6308851;22;20244;-91
2022/03/20 18:12:10;;;;;;;33.37;23.27;;;12.70;74.00;;;;;;6306447;22;20574;-91
2022/03/20 18:14:37;;;;;;;31.93;23.03;;;12.50;75.00;;;;;;6307012;22;20152;-92
2022/03/20 18:17:04;;;;;;;33.20;24.70;;;12.40;75.60;;;;;;6307370;22;20189;-91
2022/03/20 18:19:30;;;;;;;35.77;23.17;;;12.50;75.30;;;;;;6306475;22;20183;-91
2022/03/20 18:21:56;;;;;;;34.10;24.30;;;12.30;75.60;;;;;;6307200;22;20157;-91
2022/03/20 18:24:22;;;;;;;32.87;23.33;;;12.20;76.00;;;;;;6306322;22;20191;-91
2022/03/20 18:26:47;;;;;;;32.20;22.90;;;12.20;75.70;;;;;;6306268;22;20235;-91
2022/03/20 18:29:13;;;;;;;31.93;23.13;;;12.20;75.40;;;;;;6305794;22;20144;-92
2022/03/20 18:31:39;;;;;;;32.77;22.90;;;12.30;75.30;;;;;;6306628;22;20221;-91
2022/03/20 18:34:04;;;;;;;33.77;24.40;;;12.10;76.00;;;;;;6307265;22;20148;-92
2022/03/20 18:36:30;;;;;;;33.60;24.30;;;11.90;76.40;;;;;;6307527;22;20183;-93
2022/03/20 18:38:56;;;;;;;33.60;23.07;;;12.10;76.00;;;;;;6306468;22;20148;-92
2022/03/20 18:41:22;;;;;;;34.13;24.70;;;11.90;76.20;;;;;;6306826;22;20191;-92
2022/03/20 18:43:47;;;;;;;33.33;24.03;;;11.80;75.90;;;;;;6309169;22;20158;-92
2022/03/20 18:46:13;;;;;;;33.47;23.77;;;11.60;76.20;;;;;;6317530;22;20542;-91
2022/03/20 18:48:39;;;;;;;33.73;23.50;;;11.60;77.40;;;;;;6311826;22;20499;-91
2022/03/20 18:51:12;;;;;;;35.47;24.27;;;11.50;77.30;;;;;;6307600;22;20150;-92
2022/03/20 18:53:43;;;;;;;33.90;23.47;;;11.50;77.40;;;;;;6307109;22;20151;-91
2022/03/20 18:56:09;;;;;;;34.13;24.60;;;11.40;78.10;;;;;;6307231;22;20154;-93
2022/03/20 18:58:36;;;;;;;33.60;25.17;;;11.40;78.50;;;;;;6305523;22;20585;-90
2022/03/20 19:01:03;;;;;;;36.87;26.17;;;11.40;78.70;;;;;;6299623;22;20190;-92
2022/03/20 19:03:29;;;;;;;34.17;24.43;;;11.40;78.60;;;;;;6307108;22;20236;-92
2022/03/20 19:05:56;;;;;;;33.57;24.80;;;11.20;78.80;;;;;;6306447;22;20164;-92
2022/03/20 19:08:22;;;;;;;35.80;24.57;;;11.10;79.10;;;;;;6308667;22;20162;-93
2022/03/20 19:10:48;;;;;;;38.23;26.20;;;11.00;79.50;;;;;;6308134;22;20147;-93
2022/03/20 19:13:13;;;;;;;37.33;25.73;;;10.90;80.50;;;;;;6308399;22;20528;-93
2022/03/20 19:15:39;;;;;;;38.43;26.80;;;10.80;81.00;;;;;;6307443;22;20189;-92
2022/03/20 19:18:06;;;;;;;42.90;27.47;;;10.80;80.50;;;;;;6307988;22;20159;-92
2022/03/20 19:20:31;;;;;;;40.70;28.93;;;10.90;79.80;;;;;;6307523;22;20186;-92
2022/03/20 19:22:57;;;;;;;38.03;27.67;;;11.00;79.70;;;;;;6307619;22;20150;-94
2022/03/20 19:25:23;;;;;;;40.97;27.00;;;11.00;79.40;;;;;;6306652;22;20155;-93
2022/03/20 19:27:49;;;;;;;45.03;30.40;;;10.80;80.50;;;;;;6308170;22;20150;-93
2022/03/20 19:30:17;;;;;;;44.53;29.73;;;11.00;80.10;;;;;;6308298;22;20142;-92
2022/03/20 19:32:43;;;;;;;47.63;32.23;;;10.90;80.60;;;;;;6313318;22;20170;-93
2022/03/20 19:40:38;;;;;;;49.60;35.43;;;10.80;81.00;;;;;;6310323;22;20288;-94
2022/03/20 19:43:04;;;;;;;50.70;33.77;;;10.80;81.40;;;;;;6307956;22;20574;-93
2022/03/20 19:45:30;;;;;;;46.53;33.10;;;10.60;81.90;;;;;;6308052;22;20157;-92
2022/03/20 19:47:55;;;;;;;46.00;31.57;;;10.40;82.40;;;;;;6308875;22;20146;-93
2022/03/20 19:50:21;;;;;;;46.90;31.57;;;10.40;82.40;;;;;;6308082;22;20145;-92
2022/03/20 19:52:47;;;;;;;45.40;31.23;;;10.30;82.90;;;;;;6308953;22;20164;-93
2022/03/20 19:55:13;;;;;;;48.03;31.03;;;10.40;82.60;;;;;;6309156;22;20150;-94
2022/03/20 19:57:39;;;;;;;43.67;30.10;;;10.50;82.10;;;;;;6309364;22;20157;-93
2022/03/20 20:00:08;;;;;;;40.87;28.23;;;10.40;82.30;;;;;;6306058;22;20185;-93
2022/03/20 20:02:34;;;;;;;45.33;28.67;;;10.40;81.70;;;;;;6308676;22;20154;-94
2022/03/20 20:05:00;;;;;;;39.17;28.43;;;10.30;82.10;;;;;;6308873;22;20605;-94
2022/03/20 20:07:25;;;;;;;41.73;29.67;;;10.30;82.70;;;;;;6309965;22;20165;-94
2022/03/20 20:09:51;;;;;;;39.53;28.07;;;10.10;82.90;;;;;;6310011;22;20176;-94
2022/03/20 20:12:17;;;;;;;41.83;29.47;;;10.00;83.70;;;;;;6308966;22;20224;-94
2022/03/20 20:14:45;;;;;;;41.20;28.90;;;10.10;83.40;;;;;;6309755;22;20712;-95
2022/03/20 20:17:20;;;;;;;40.50;28.43;;;10.10;83.20;;;;;;6309574;22;20292;-96
2022/03/20 20:19:47;;;;;;;41.97;27.70;;;10.10;83.20;;;;;;6309377;22;20189;-92
2022/03/20 20:22:12;;;;;;;43.33;28.60;;;10.00;83.60;;;;;;6309144;22;20588;-92
2022/03/20 20:24:38;;;;;;;43.10;29.23;;;10.10;83.20;;;;;;6313814;22;20200;-94
2022/03/20 20:27:03;;;;;;;41.57;30.03;;;9.90;83.80;;;;;;6314971;22;20158;-92
2022/03/20 20:29:29;;;;;;;45.90;30.40;;;9.90;84.20;;;;;;6311089;22;20180;-90
2022/03/20 20:31:55;;;;;;;46.43;30.60;;;10.00;83.50;;;;;;6312375;22;20166;-90
2022/03/20 20:34:22;;;;;;;48.87;30.57;;;10.10;83.20;;;;;;6315797;22;20176;-90
2022/03/20 20:36:48;;;;;;;48.60;30.23;;;10.10;83.10;;;;;;6309826;22;20628;-90
2022/03/20 20:39:14;;;;;;;44.17;30.57;;;10.10;83.00;;;;;;6309789;22;20181;-91
2022/03/20 20:41:41;;;;;;;45.93;30.87;;;9.90;83.40;;;;;;6310260;22;20529;-91
2022/03/20 20:44:07;;;;;;;48.87;31.40;;;9.70;84.30;;;;;;6309663;22;20157;-90
2022/03/20 20:46:33;;;;;;;43.23;30.97;;;9.70;84.20;;;;;;6309947;22;20570;-90
2022/03/20 20:48:59;;;;;;;40.10;28.73;;;9.70;84.70;;;;;;6309985;22;20172;-90
2022/03/20 20:51:26;;;;;;;44.27;30.30;;;9.50;85.40;;;;;;6309519;22;20182;-89
2022/03/20 20:53:53;;;;;;;47.27;31.20;;;9.50;85.50;;;;;;6309634;22;20649;-92